KB1CHU-13 Weather Reports


Display with metric or nautical units.
time (UTC)temp
F
wind
direction
speed
MPH
gust
MPH
rain 1hr
in
rain 24hr
in
rain mn
in
humidity
%
barometer
mb
20190419123521 65 168 7.0 21.0 0.00 0.00 0.00 68 1011.4
20190419123021 65 127 3.0 6.0 0.00 0.00 0.00 68 1011.5
20190419122451 64 159 8.0 13.0 0.00 0.00 0.00 65 1011.4
20190419121951 64 167 7.0 13.0 0.00 0.00 0.00 68 1011.4
20190419121421 64 178 6.0 10.0 0.00 0.00 0.00 67 1011.4
20190419120851 63 144 9.0 20.0 0.00 0.00 0.00 68 1011.3
20190419120321 63 234 3.0 8.0 0.00 0.00 0.00 71 1011.4
20190419115821 63 164 10.0 18.0 0.00 0.00 0.00 72 1011.3
20190419115251 63 155 7.0 13.0 0.00 0.00 0.00 72 1011.4
20190419114721 63 227 7.0 14.0 0.00 0.00 0.00 74 1011.3
20190419114151 62 187 7.0 9.0 0.00 0.00 0.00 73 1011.3
20190419113621 62 153 3.0 18.0 0.00 0.00 0.00 77 1011.3
20190419113051 62 183 7.0 15.0 0.00 0.00 0.00 75 1011.2
20190419112521 62 171 3.0 8.0 0.00 0.00 0.00 74 1011.2
20190419111951 62 161 6.0 9.0 0.00 0.00 0.00 74 1011.1
20190419111421 62 165 6.0 14.0 0.00 0.00 0.00 74 1011.3
20190419110851 62 157 7.0 13.0 0.00 0.00 0.00 76 1011.3
20190419110321 61 109 7.0 8.0 0.00 0.00 0.00 77 1011.3
20190419105751 61 145 5.0 10.0 0.00 0.00 0.00 77 1011.3
20190419105221 61 146 3.0 9.0 0.00 0.00 0.00 78 1011.4
20190419104651 61 191 5.0 8.0 0.00 0.00 0.00 79 1011.4
20190419104121 61 182 7.0 15.0 0.00 0.00 0.00 79 1011.4
20190419103551 61 155 5.0 9.0 0.00 0.00 0.00 80 1011.5
20190419103021 61 252 3.0 8.0 0.00 0.00 0.00 79 1011.5
20190419102451 61 179 8.0 17.0 0.00 0.00 0.00 81 1011.5
20190419101921 61 173 7.0 15.0 0.00 0.00 0.00 78 1011.4
20190419101351 61 152 7.0 15.0 0.00 0.00 0.00 76 1011.5
20190419100821 61 161 8.0 12.0 0.00 0.00 0.00 80 1011.5
20190419100251 61 145 6.0 12.0 0.00 0.00 0.00 79 1011.5
20190419095721 61 148 7.0 18.0 0.00 0.00 0.00 80 1011.6
20190419095151 61 161 9.0 15.0 0.00 0.00 0.00 80 1011.5
20190419094651 61 178 6.0 18.0 0.00 0.00 0.00 80 1011.5
20190419094151 61 160 5.0 7.0 0.00 0.00 0.00 81 1011.4
20190419093651 61 171 5.0 10.0 0.00 0.00 0.00 81 1011.5
20190419093121 61 162 8.0 14.0 0.00 0.00 0.00 82 1011.4
20190419092551 61 166 6.0 10.0 0.00 0.00 0.00 83 1011.4
20190419092051 61 190 6.0 14.0 0.00 0.00 0.00 82 1011.5
20190419091521 61 179 6.0 8.0 0.00 0.00 0.00 82 1011.5
20190419091021 61 158 6.0 8.0 0.00 0.00 0.00 80 1011.5
20190419090521 61 174 8.0 12.0 0.00 0.00 0.00 81 1011.5
20190419085951 61 158 8.0 15.0 0.00 0.00 0.00 82 1011.5
20190419085451 61 182 6.0 13.0 0.00 0.00 0.00 82 1011.5
20190419084921 61 167 7.0 12.0 0.00 0.00 0.00 82 1011.4
20190419084351 61 194 3.0 8.0 0.00 0.00 0.00 81 1011.4
20190419083821 61 220 7.0 14.0 0.00 0.00 0.00 81 1011.4
20190419083321 61 181 6.0 12.0 0.00 0.00 0.00 82 1011.4
20190419082751 61 189 7.0 15.0 0.00 0.00 0.00 81 1011.5
20190419082221 61 152 9.0 18.0 0.00 0.00 0.00 81 1011.6
20190419081651 61 125 6.0 14.0 0.00 0.00 0.00 83 1011.5
20190419081151 61 147 5.0 9.0 0.00 0.00 0.00 83 1011.6
20190419080651 61 161 7.0 12.0 0.00 0.00 0.00 83 1011.6
20190419080151 61 167 9.0 18.0 0.00 0.00 0.00 83 1011.5
20190419075621 61 175 5.0 10.0 0.00 0.00 0.00 83 1011.6
20190419075051 61 194 7.0 9.0 0.00 0.00 0.00 82 1011.7
20190419074551 61 164 6.0 14.0 0.00 0.00 0.00 83 1011.7
20190419074051 61 157 7.0 22.0 0.00 0.00 0.00 83 1011.7
20190419073521 61 177 9.0 18.0 0.00 0.00 0.00 83 1011.8
20190419073021 61 156 5.0 9.0 0.00 0.00 0.00 85 1011.9
20190419072452 61 187 5.0 10.0 0.00 0.00 0.00 84 1012.0
20190419071921 61 134 5.0 14.0 0.00 0.00 0.00 84 1012.0
20190419071351 61 181 7.0 17.0 0.00 0.00 0.00 85 1012.1
20190419070821 61 177 6.0 8.0 0.00 0.00 0.00 84 1012.1
20190419070251 61 160 7.0 9.0 0.00 0.00 0.00 83 1012.1
20190419065721 61 156 7.0 12.0 0.00 0.00 0.00 83 1012.2
20190419065151 61 167 5.0 14.0 0.00 0.00 0.00 84 1012.3
20190419064651 61 166 8.0 12.0 0.00 0.00 0.00 85 1012.4
20190419064121 61 207 7.0 13.0 0.00 0.00 0.00 84 1012.4
20190419063621 61 160 7.0 15.0 0.00 0.00 0.00 84 1012.5
20190419063051 61 149 5.0 9.0 0.00 0.00 0.00 83 1012.5
20190419062521 62 182 6.0 12.0 0.00 0.00 0.00 82 1012.5
20190419061951 62 156 8.0 15.0 0.00 0.00 0.00 83 1012.4
20190419061421 62 174 5.0 8.0 0.00 0.00 0.00 83 1012.6
20190419060921 62 154 6.0 16.0 0.00 0.00 0.00 84 1012.6
20190419060351 62 140 6.0 9.0 0.00 0.00 0.00 84 1012.7
20190419055851 62 185 6.0 7.0 0.00 0.00 0.00 83 1012.9
20190419055351 62 163 6.0 15.0 0.00 0.00 0.00 84 1013.0
20190419054821 62 141 3.0 8.0 0.00 0.00 0.00 82 1013.2
20190419054251 62 172 7.0 15.0 0.00 0.00 0.00 83 1013.2
20190419053751 62 148 5.0 9.0 0.00 0.00 0.00 84 1013.1
20190419053221 61 171 5.0 7.0 0.00 0.00 0.00 85 1013.2
20190419052651 61 175 5.0 7.0 0.00 0.00 0.00 84 1013.4
20190419052151 61 155 6.0 15.0 0.00 0.00 0.00 85 1013.5
20190419051621 61 190 6.0 8.0 0.00 0.00 0.00 84 1013.6
20190419051121 61 156 6.0 13.0 0.00 0.00 0.00 85 1013.6
20190419050551 60 207 2.0 6.0 0.00 0.00 0.00 85 1013.6
20190419050021 60 161 5.0 10.0 0.00 0.00 0.00 85 1013.7
20190419045451 60 154 7.0 9.0 0.00 0.00 0.00 85 1013.6
20190419044921 60 185 5.0 10.0 0.00 0.00 0.00 81 1013.7
20190419044421 60 143 6.0 8.0 0.00 0.00 0.00 86 1013.7
20190419043851 60 134 5.0 9.0 0.00 0.00 0.00 84 1013.8
20190419043321 60 152 6.0 9.0 0.00 0.00 0.00 85 1013.9
20190419042821 60 165 6.0 12.0 0.00 0.00 0.00 84 1014.1
20190419042251 60 156 5.0 9.0 0.00 0.00 0.00 83 1014.1
20190419041751 60 157 3.0 8.0 0.00 0.00 0.00 83 1013.9
20190419041251 60 172 5.0 7.0 0.00 0.00 0.00 83 1013.8
20190419040722 60 168 7.0 13.0 0.00 0.00 0.00 83 1013.8
20190419040221 60 149 6.0 10.0 0.00 0.00 0.00 85 1013.7
20190419035651 60 140 8.0 13.0 0.00 0.00 0.00 86 1013.7
20190419035121 60 144 6.0 8.0 0.00 0.00 0.00 86 1013.7
20190419034551 59 145 7.0 14.0 0.00 0.00 0.00 85 1013.6
20190419034021 59 165 6.0 12.0 0.00 0.00 0.00 83 1013.5
20190419033451 59 147 5.0 9.0 0.00 0.00 0.00 84 1013.6
20190419032921 59 162 6.0 12.0 0.00 0.00 0.00 83 1013.7
20190419032351 59 142 5.0 14.0 0.00 0.00 0.00 82 1013.7
20190419031821 59 135 7.0 17.0 0.00 0.00 0.00 83 1013.7
20190419031251 59 137 8.0 12.0 0.00 0.00 0.00 84 1013.8
20190419030751 58 130 6.0 15.0 0.00 0.00 0.00 82 1013.9
20190419030222 58 139 6.0 9.0 0.00 0.00 0.00 83 1013.8
20190419025721 58 143 3.0 3.0 0.00 0.00 0.00 82 1014.0
20190419025151 58 109 2.0 2.0 0.00 0.00 0.00 82 1014.3
20190419024651 58 163 6.0 12.0 0.00 0.00 0.00 82 1014.4
20190419024121 58 182 2.0 6.0 0.00 0.00 0.00 82 1014.5
20190419023551 58 160 5.0 10.0 0.00 0.00 0.00 81 1014.4
20190419023051 58 128 3.0 12.0 0.00 0.00 0.00 81 1014.5
20190419022521 58 129 3.0 2.0 0.00 0.00 0.00 82 1014.5
20190419021951 58 111 5.0 7.0 0.00 0.00 0.00 82 1014.7
20190419021451 58 141 6.0 9.0 0.00 0.00 0.00 81 1014.7
20190419020921 57 150 5.0 15.0 0.00 0.00 0.00 81 1014.9
20190419020351 57 145 6.0 9.0 0.00 0.00 0.00 79 1014.9
20190419015851 57 128 6.0 18.0 0.00 0.00 0.00 80 1014.9
20190419015420 57 124 3.0 8.0 0.00 0.00 0.00 80 1015.2
20190419015321 57 81 6.0 9.0 0.00 0.00 0.00 80 1015.0
20190419014751 57 124 3.0 8.0 0.00 0.00 0.00 80 1015.2
20190419014421 57 148 5.0 9.0 0.00 0.00 0.00 79 1015.3
20190419014221 57 170 3.0 6.0 0.00 0.00 0.00 80 1015.3
20190419013651 57 148 5.0 9.0 0.00 0.00 0.00 79 1015.3
20190419013151 56 177 5.0 9.0 0.00 0.00 0.00 80 1015.4
20190419012621 56 141 3.0 9.0 0.00 0.00 0.00 80 1015.4
20190419012131 56 120 6.0 10.0 0.00 0.00 0.00 80 1015.4
20190419012051 56 120 6.0 10.0 0.00 0.00 0.00 80 1015.4
20190419011521 56 108 2.0 6.0 0.00 0.00 0.00 80 1015.5
20190419010951 56 112 3.0 6.0 0.00 0.00 0.00 80 1015.7
20190419010452 56 149 3.0 13.0 0.00 0.00 0.00 80 1015.8
20190419010421 56 149 3.0 13.0 0.00 0.00 0.00 80 1015.8
20190419005851 56 157 5.0 10.0 0.00 0.00 0.00 81 1015.9
20190419005321 55 173 3.0 8.0 0.00 0.00 0.00 80 1016.1
20190419004821 55 153 5.0 7.0 0.00 0.00 0.00 80 1016.2
20190419004251 55 118 6.0 14.0 0.00 0.00 0.00 80 1016.2
20190419003721 55 132 7.0 9.0 0.00 0.00 0.00 80 1016.3
20190419003151 55 141 5.0 13.0 0.00 0.00 0.00 80 1016.3
20190419002621 55 114 3.0 5.0 0.00 0.00 0.00 80 1016.3
20190419002052 55 124 6.0 7.0 0.00 0.00 0.00 79 1016.5
20190419001522 55 92 3.0 5.0 0.00 0.00 0.00 78 1016.6
20190419001021 55 128 2.0 3.0 0.00 0.00 0.00 79 1016.9
20190419000522 55 90 3.0 5.0 0.00 0.00 0.00 78 1016.7
20190418235951 54 152 3.0 8.0 0.00 0.00 0.00 80 1016.7
20190418235421 54 105 3.0 7.0 0.00 0.00 0.00 79 1016.8
20190418234921 54 103 5.0 7.0 0.00 0.00 0.00 80 1016.8
20190418234351 53 109 5.0 10.0 0.00 0.00 0.00 81 1016.9
20190418233851 53 147 3.0 6.0 0.00 0.00 0.00 81 1016.9
20190418233322 53 187 2.0 7.0 0.00 0.00 0.00 81 1017.1
20190418232821 52 111 2.0 10.0 0.00 0.00 0.00 81 1017.0
20190418232321 52 122 5.0 9.0 0.00 0.00 0.00 82 1017.0
20190418231751 51 110 5.0 6.0 0.00 0.00 0.00 82 1017.3
20190418231251 51 169 1.0 3.0 0.00 0.00 0.00 81 1017.5
20190418230721 51 114 2.0 3.0 0.00 0.00 0.00 82 1017.8
20190418230222 51 149 1.0 5.0 0.00 0.00 0.00 81 1017.9
20190418225651 51 78 2.0 5.0 0.00 0.00 0.00 80 1018.0
20190418225122 51 102 0.0 1.0 0.00 0.00 0.00 80 1018.1
20190418224551 50 28 0.0 0.0 0.00 0.00 0.00 80 1018.0
20190418224022 50 90 3.0 8.0 0.00 0.00 0.00 80 1018.1
20190418223522 50 154 1.0 5.0 0.00 0.00 0.00 79 1018.2
20190418223022 50 117 0.0 3.0 0.00 0.00 0.00 80 1018.3
20190418222451 50 84 1.0 8.0 0.00 0.00 0.00 80 1018.4
20190418221922 50 154 2.0 6.0 0.00 0.00 0.00 81 1018.5
20190418221352 50 87 2.0 6.0 0.00 0.00 0.00 81 1018.6
20190418220852 50 140 3.0 7.0 0.00 0.00 0.00 81 1018.7
20190418220352 50 145 2.0 2.0 0.00 0.00 0.00 80 1018.9
20190418215822 50 110 2.0 8.0 0.00 0.00 0.00 81 1018.9
20190418215252 50 118 5.0 6.0 0.00 0.00 0.00 81 1019.0
20190418214752 49 88 0.0 1.0 0.00 0.00 0.00 80 1019.1
20190418214222 49 92 6.0 8.0 0.00 0.00 0.00 80 1019.3
20190418213652 49 86 2.0 7.0 0.00 0.00 0.00 81 1019.5
20190418213122 49 61 2.0 5.0 0.00 0.00 0.00 80 1019.6
20190418212622 49 90 1.0 3.0 0.00 0.00 0.00 79 1019.7
20190418212052 49 72 1.0 6.0 0.00 0.00 0.00 77 1019.9
20190418211522 50 99 2.0 7.0 0.00 0.00 0.00 77 1019.9
20190418210952 50 77 2.0 6.0 0.00 0.00 0.00 75 1020.2
20190418210422 50 105 3.0 6.0 0.00 0.00 0.00 73 1020.3
20190418205852 50 158 3.0 6.0 0.00 0.00 0.00 72 1020.6
20190418205352 50 117 3.0 6.0 0.00 0.00 0.00 71 1020.7
20190418204822 50 173 5.0 9.0 0.00 0.00 0.00 69 1020.9
20190418204353 50 49 2.0 3.0 0.00 0.00 0.00 69 1020.9
20190418204322 50 49 2.0 3.0 0.00 0.00 0.00 69 1020.9
20190418203822 50 113 6.0 16.0 0.00 0.00 0.00 68 1021.1
20190418203252 50 121 6.0 9.0 0.00 0.00 0.00 67 1020.9
20190418202722 50 83 2.0 7.0 0.00 0.00 0.00 67 1021.1
20190418202244 50 72 6.0 10.0 0.00 0.00 0.00 68 1021.4
20190418202152 50 72 6.0 10.0 0.00 0.00 0.00 68 1021.4
20190418201652 50 141 3.0 3.0 0.00 0.00 0.00 68 1021.5
20190418201122 50 102 3.0 5.0 0.00 0.00 0.00 68 1021.6
20190418200622 51 147 5.0 12.0 0.00 0.00 0.00 69 1021.6
20190418200122 51 155 3.0 7.0 0.00 0.00 0.00 68 1021.5
20190418195650 51 115 3.0 7.0 0.00 0.00 0.00 68 1021.6
20190418195552 51 115 3.0 7.0 0.00 0.00 0.00 68 1021.6
20190418195022 51 90 5.0 9.0 0.00 0.00 0.00 69 1021.5
20190418194522 51 107 5.0 7.0 0.00 0.00 0.00 68 1021.6
20190418193952 51 77 5.0 7.0 0.00 0.00 0.00 67 1021.7
20190418193422 51 135 3.0 14.0 0.00 0.00 0.00 69 1021.8
20190418192922 51 148 6.0 8.0 0.00 0.00 0.00 68 1021.8
20190418192422 51 117 5.0 9.0 0.00 0.00 0.00 67 1022.0
20190418191852 51 92 5.0 7.0 0.00 0.00 0.00 67 1021.9
20190418191352 51 99 5.0 9.0 0.00 0.00 0.00 67 1021.9
20190418190852 51 123 1.0 5.0 0.00 0.00 0.00 67 1022.1
20190418190352 52 118 7.0 13.0 0.00 0.00 0.00 67 1022.2
20190418185822 52 138 5.0 8.0 0.00 0.00 0.00 68 1022.2
20190418185252 51 94 7.0 9.0 0.00 0.00 0.00 68 1022.0
20190418184801 51 71 6.0 9.0 0.00 0.00 0.00 68 1022.4
20190418184722 51 71 6.0 9.0 0.00 0.00 0.00 68 1022.4
20190418184152 51 104 3.0 10.0 0.00 0.00 0.00 68 1022.9
20190418183652 51 101 5.0 7.0 0.00 0.00 0.00 67 1022.9
20190418183152 51 110 3.0 9.0 0.00 0.00 0.00 67 1023.0
20190418182622 52 121 3.0 8.0 0.00 0.00 0.00 67 1023.2
20190418182052 52 100 5.0 12.0 0.00 0.00 0.00 66 1023.4
20190418181522 52 137 6.0 9.0 0.00 0.00 0.00 66 1023.4
20190418180952 52 75 2.0 6.0 0.00 0.00 0.00 68 1023.4
20190418180427 52 97 5.0 7.0 0.00 0.00 0.00 67 1023.4
20190418175857 52 156 3.0 3.0 0.00 0.00 0.00 67 1023.7
20190418175322 52 147 3.0 6.0 0.00 0.00 0.00 66 1023.7
20190418174752 52 127 2.0 6.0 0.00 0.00 0.00 67 1023.9
20190418174222 52 135 3.0 7.0 0.00 0.00 0.00 64 1024.0
20190418173652 53 100 6.0 8.0 0.00 0.00 0.00 63 1023.9
20190418173152 53 125 5.0 9.0 0.00 0.00 0.00 64 1023.8
20190418172622 53 113 7.0 10.0 0.00 0.00 0.00 61 1023.9
20190418172122 53 104 5.0 8.0 0.00 0.00 0.00 64 1023.9
20190418171552 52 81 5.0 9.0 0.00 0.00 0.00 63 1024.0
20190418171022 52 103 3.0 8.0 0.00 0.00 0.00 64 1024.1
20190418170452 52 117 7.0 13.0 0.00 0.00 0.00 64 1024.2
20190418165922 52 84 7.0 18.0 0.00 0.00 0.00 63 1024.5
20190418165352 52 70 5.0 8.0 0.00 0.00 0.00 63 1024.5
20190418164822 51 123 3.0 7.0 0.00 0.00 0.00 62 1024.4
20190418164252 51 93 5.0 12.0 0.00 0.00 0.00 63 1024.5
20190418163722 51 99 3.0 6.0 0.00 0.00 0.00 61 1024.7
20190418163222 50 117 5.0 6.0 0.00 0.00 0.00 60 1024.9
20190418162652 50 147 2.0 2.0 0.00 0.00 0.00 60 1025.0
20190418162152 50 91 3.0 6.0 0.00 0.00 0.00 60 1025.0
20190418161622 50 128 2.0 5.0 0.00 0.00 0.00 61 1024.9
20190418161052 49 75 3.0 6.0 0.00 0.00 0.00 60 1024.7
20190418160522 49 96 2.0 5.0 0.00 0.00 0.00 61 1024.9
20190418155952 49 155 3.0 3.0 0.00 0.00 0.00 61 1025.0
20190418155422 48 127 2.0 7.0 0.00 0.00 0.00 63 1025.2
20190418154852 48 109 2.0 3.0 0.00 0.00 0.00 65 1025.2
20190418154322 48 135 3.0 9.0 0.00 0.00 0.00 63 1025.0
20190418153822 48 130 1.0 7.0 0.00 0.00 0.00 63 1024.8
20190418153252 48 93 5.0 9.0 0.00 0.00 0.00 65 1024.6
20190418152722 48 79 3.0 5.0 0.00 0.00 0.00 63 1024.8
20190418152222 48 96 1.0 5.0 0.00 0.00 0.00 62 1024.8
20190418151652 48 102 1.0 5.0 0.00 0.00 0.00 63 1025.1
20190418151122 48 114 2.0 7.0 0.00 0.00 0.00 62 1025.2
20190418150622 48 114 5.0 8.0 0.00 0.00 0.00 65 1025.3
20190418150122 48 151 2.0 6.0 0.00 0.00 0.00 65 1025.2
20190418145552 48 79 2.0 3.0 0.00 0.00 0.00 65 1025.1
20190418145022 48 136 2.0 7.0 0.00 0.00 0.00 66 1025.2
20190418144452 48 94 2.0 6.0 0.00 0.00 0.00 65 1025.2
20190418143922 47 87 6.0 9.0 0.00 0.00 0.00 66 1025.1
20190418143422 47 73 5.0 7.0 0.00 0.00 0.00 66 1025.1
20190418142852 46 87 5.0 7.0 0.00 0.00 0.00 67 1025.1
20190418142352 46 77 5.0 10.0 0.00 0.00 0.00 68 1025.2
20190418141822 46 110 3.0 6.0 0.00 0.00 0.00 68 1025.4
20190418141322 46 87 1.0 6.0 0.00 0.00 0.00 69 1025.7
20190418140822 46 72 1.0 5.0 0.00 0.00 0.00 68 1025.6
20190418140252 46 135 2.0 5.0 0.00 0.00 0.00 68 1025.6
20190418135722 46 64 2.0 9.0 0.00 0.00 0.00 69 1025.7
20190418135222 46 20 1.0 1.0 0.00 0.00 0.00 68 1025.9
20190418134652 46 96 2.0 9.0 0.00 0.00 0.00 68 1025.9
20190418134152 46 121 1.0 5.0 0.00 0.00 0.00 66 1025.9
20190418133652 46 114 1.0 5.0 0.00 0.00 0.00 69 1025.9
20190418133152 46 74 1.0 1.0 0.00 0.00 0.00 70 1025.9
20190418132622 45 84 3.0 5.0 0.00 0.00 0.00 69 1025.8
20190418132052 45 88 2.0 6.0 0.00 0.00 0.00 72 1025.8
20190418131522 45 122 3.0 3.0 0.00 0.00 0.00 70 1025.7
20190418130952 45 13 0.0 3.0 0.00 0.00 0.00 75 1025.7
20190418130422 44 133 3.0 5.0 0.00 0.00 0.00 74 1025.6
20190418125852 44 103 1.0 3.0 0.00 0.00 0.00 75 1025.7
20190418125322 44 353 0.0 0.0 0.00 0.00 0.00 75 1025.8
20190418124752 44 2 0.0 0.0 0.00 0.00 0.00 80 1025.9
20190418124252 44 67 0.0 2.0 0.00 0.00 0.00 81 1026.0
20190418123752 44 46 0.0 0.0 0.00 0.00 0.00 81 1026.0